Airfield :
LOGIN :

Register | Disclaimer

   EN    FR    IT 

 










Legend :    VFR   Marginal VFR   IFR   Intensive IFR   Very Intensive IFR
Visi :
Ceiling :
>= 8 km
>= 3000ft
5 to 8 km
1000 to 3000 ft
1500m to 5 km
500 to 1000 ft
800 to 1500m
200 to 500 ft
< 800m
< 200 ft
Symbols :   Thunderstorms  Fog  Heavy snow  Heavy precipitations  Wind > 20 kt
SIGMETs :     Misc.  Thunderstorms  Icing  Turbulence  Mountain Waves  Volcanic Ashes






- Airport Elevation : 353 ft
- IATA code : CND


LRCK - Constanta

CURRENT METAR :
  • 270230Z 22011KT CAVOK 10/08 Q0998 NOSIG

EXPIRED METARs :
  • 270200Z 23012KT CAVOK 10/07 Q0997 NOSIG
  • 270130Z 24009KT CAVOK 12/08 Q0997 NOSIG
  • 270100Z 25005KT CAVOK 07/05 Q0998 NOSIG
  • 270030Z 27009KT CAVOK 08/06 Q0998 NOSIG
  • 270000Z 26008KT CAVOK 09/06 Q0998 NOSIG
  • 262330Z 23007KT CAVOK 09/06 Q0998 NOSIG

TAF TAF LRCK
Valid from the 27 at 00:00 until the 28 at 00:00 UTC


262300Z 2700/2724 22014KT CAVOK
TEMPO 2707/2710 24020G30KT
BECMG 2714/2716 31012KT
TEMPO 2714/2718 31015G30KT 5000 -SHRA SCT035CB



MET'MAP, your aeronautical weather chart ! - Copyright ORBIFLY December 2007 - Disclaimer

ORBIFLY MET'MAP TEAM :

Programming & Development : Alexandra Zaïnal
Concept & original design : Baudouin d'Aumeries
Assistance for programming : Marc-Olivier Méhu
Technical & hardware support : Manuel Goepfert

Contact : metmap@orbifly.com




SOURCES & CREDITS :

   NOAA